Time;durP1;ratioP1;P1;durP2;ratioP2;P2;SDS_P1;SDS_P2;PMS_P1;PMS_P2;Temp;Humidity;BMP_temperature;BMP_pressure;BME280_temperature;BME280_humidity;BME280_pressure;Samples;Min_cycle;Max_cycle;Signal;HPM_P1;HPM_P2
2022/01/13 00:00:48;;;;;;;7.50;2.93;;;8.10;45.10;;;;;;5073720;28;20189;-51
2022/01/13 00:03:14;;;;;;;7.17;3.53;;;8.10;45.30;;;;;;5076234;28;20652;-51
2022/01/13 00:05:39;;;;;;;8.40;3.83;;;8.00;45.30;;;;;;5076218;28;20160;-51
2022/01/13 00:08:05;;;;;;;4.57;2.63;;;8.10;45.30;;;;;;5076047;28;20188;-51
2022/01/13 00:10:31;;;;;;;7.07;3.20;;;8.10;46.20;;;;;;5075991;28;20637;-51
2022/01/13 00:13:02;;;;;;;8.17;3.00;;;8.10;45.50;;;;;;5075931;28;20179;-51
2022/01/13 00:15:41;;;;;;;9.80;3.45;;;8.10;45.30;;;;;;5075927;28;20613;-51
2022/01/13 00:18:14;;;;;;;11.90;1.77;;;8.10;45.30;;;;;;5075958;28;20180;-51
2022/01/13 00:26:14;;;;;;;4.50;2.20;;;8.10;45.40;;;;;;5076069;28;20219;-51
2022/01/13 00:28:43;;;;;;;5.97;3.10;;;8.10;45.30;;;;;;5075989;28;20196;-51
2022/01/13 00:31:09;;;;;;;4.55;2.88;;;8.10;45.30;;;;;;5075587;28;20160;-51
2022/01/13 00:33:34;;;;;;;7.33;3.83;;;8.10;45.40;;;;;;5075687;28;20172;-51
2022/01/13 00:36:01;;;;;;;9.13;2.80;;;8.20;45.30;;;;;;5074239;28;20180;-51
2022/01/13 00:38:27;;;;;;;6.40;2.65;;;8.20;45.30;;;;;;5074205;28;20407;-51
2022/01/13 00:40:53;;;;;;;4.55;2.17;;;8.20;45.40;;;;;;5075305;28;20236;-51
2022/01/13 00:43:19;;;;;;;7.33;4.23;;;8.20;45.30;;;;;;5075497;28;20173;-51
2022/01/13 00:45:47;;;;;;;7.28;3.60;;;8.20;45.40;;;;;;5075410;28;20411;-51
2022/01/13 00:48:13;;;;;;;8.25;4.07;;;8.20;45.40;;;;;;5074269;28;20173;-51
2022/01/13 00:50:39;;;;;;;7.00;3.33;;;8.20;45.40;;;;;;5075253;28;20244;-51
2022/01/13 00:53:05;;;;;;;6.37;2.73;;;8.10;45.60;;;;;;5073906;28;20422;-51
2022/01/13 00:55:47;;;;;;;8.93;3.28;;;8.20;45.40;;;;;;5075296;28;20172;-51
2022/01/13 00:58:13;;;;;;;13.50;3.70;;;8.20;45.40;;;;;;5075382;28;20165;-51
2022/01/13 01:00:40;;;;;;;5.40;2.97;;;8.10;46.40;;;;;;5075023;28;20214;-51
2022/01/13 01:03:07;;;;;;;3.42;1.80;;;8.00;45.80;;;;;;5074984;28;20173;-51
2022/01/13 01:05:34;;;;;;;5.35;1.95;;;8.00;45.90;;;;;;5075208;28;20643;-51
2022/01/13 01:08:01;;;;;;;7.55;2.63;;;7.80;45.90;;;;;;5074938;28;20185;-51
2022/01/13 01:10:26;;;;;;;4.30;1.92;;;7.80;45.90;;;;;;5073554;28;20169;-51
2022/01/13 01:12:52;;;;;;;10.50;4.03;;;7.70;46.00;;;;;;5074586;28;20169;-51
2022/01/13 01:15:18;;;;;;;2.90;1.52;;;6.50;45.70;;;;;;5073481;28;20200;-51
2022/01/13 01:17:50;;;;;;;4.18;1.65;;;7.70;45.80;;;;;;5073416;28;20199;-51
2022/01/13 01:20:16;;;;;;;4.30;2.10;;;7.70;45.50;;;;;;5074462;28;20295;-51
2022/01/13 01:22:57;;;;;;;2.92;1.63;;;7.70;45.50;;;;;;5073299;28;20263;-51
2022/01/13 01:27:57;;;;;;;2.55;1.30;;;7.70;45.20;;;;;;5074532;28;20236;-51
2022/01/13 01:30:39;;;;;;;4.20;2.45;;;7.70;45.20;;;;;;5073192;28;20566;-51
2022/01/13 01:33:07;;;;;;;4.13;2.05;;;7.60;45.10;;;;;;5074431;28;20199;-51
2022/01/13 01:35:32;;;;;;;3.75;1.88;;;7.70;45.00;;;;;;5074481;28;20176;-51
2022/01/13 01:37:58;;;;;;;2.63;1.40;;;7.70;44.90;;;;;;5074279;28;20574;-51
2022/01/13 01:40:24;;;;;;;3.73;1.70;;;7.70;45.70;;;;;;5074260;28;20210;-51
2022/01/13 01:42:51;;;;;;;5.20;2.45;;;7.50;45.00;;;;;;5072935;28;20165;-51
2022/01/13 01:45:18;;;;;;;3.58;2.47;;;7.50;44.90;;;;;;5074307;28;20205;-51
2022/01/13 01:47:44;;;;;;;4.00;1.63;;;7.50;44.90;;;;;;5074162;28;20165;-51
2022/01/13 01:50:18;;;;;;;3.85;2.60;;;7.40;45.10;;;;;;5074024;28;20168;-51
2022/01/13 01:52:49;;;;;;;2.22;1.50;;;7.30;45.20;;;;;;5074357;28;20190;-51
2022/01/13 01:55:16;;;;;;;5.35;1.88;;;7.30;45.10;;;;;;5074124;28;20160;-51
2022/01/13 01:57:44;;;;;;;3.60;1.88;;;7.30;45.00;;;;;;5072654;28;20648;-51
2022/01/13 02:00:12;;;;;;;2.55;1.50;;;7.30;44.90;;;;;;5073840;28;20173;-51
2022/01/13 02:02:39;;;;;;;4.60;2.80;;;7.20;45.30;;;;;;5073992;28;20180;-51
2022/01/13 02:05:05;;;;;;;1.70;1.35;;;7.10;45.50;;;;;;5074071;28;20173;-51
2022/01/13 02:07:31;;;;;;;3.22;1.60;;;7.00;45.70;;;;;;5072564;28;20168;-51
2022/01/13 02:09:57;;;;;;;4.93;2.53;;;7.10;45.40;;;;;;5072452;28;20640;-51
2022/01/13 02:12:41;;;;;;;6.67;2.10;;;7.10;45.20;;;;;;5074028;28;20959;-51
2022/01/13 02:17:37;;;;;;;2.60;1.92;;;7.00;45.30;;;;;;5073734;28;20180;-51
2022/01/13 02:20:04;;;;;;;3.08;2.13;;;7.10;45.20;;;;;;5073467;28;20224;-51
2022/01/13 02:22:30;;;;;;;3.38;1.52;;;7.00;45.20;;;;;;5073291;28;20181;-51
2022/01/13 02:24:55;;;;;;;2.90;1.57;;;7.00;45.50;;;;;;5072008;28;20650;-51
2022/01/13 02:27:21;;;;;;;5.93;1.40;;;6.90;45.70;;;;;;5073665;28;20168;-51
2022/01/13 02:29:48;;;;;;;4.30;2.30;;;6.90;45.40;;;;;;5073502;28;20418;-51
2022/01/13 02:32:14;;;;;;;4.95;2.38;;;7.00;45.30;;;;;;5072240;28;20411;-51
2022/01/13 02:34:40;;;;;;;5.82;2.60;;;6.90;45.60;;;;;;5072230;28;20164;-51
2022/01/13 02:37:06;;;;;;;1.77;1.10;;;6.90;45.60;;;;;;5072204;28;20180;-51
2022/01/13 02:39:33;;;;;;;4.77;2.30;;;6.80;45.60;;;;;;5072179;28;20431;-51
2022/01/13 02:42:00;;;;;;;3.22;1.83;;;6.80;45.70;;;;;;5073351;28;20496;-51
2022/01/13 02:44:26;;;;;;;2.95;1.65;;;6.80;45.60;;;;;;5073672;28;20177;-51
2022/01/13 02:47:09;;;;;;;2.80;1.70;;;6.70;45.80;;;;;;5072070;28;20578;-51
2022/01/13 02:49:35;;;;;;;3.42;2.33;;;6.80;46.30;;;;;;5073501;28;20391;-51
2022/01/13 02:52:02;;;;;;;4.97;2.55;;;6.70;46.00;;;;;;5073303;28;20179;-51
2022/01/13 02:54:29;;;;;;;1.50;1.35;;;6.70;45.80;;;;;;5072474;28;20224;-51
2022/01/13 02:56:55;;;;;;;8.00;2.53;;;6.70;45.80;;;;;;5073258;28;20165;-51
2022/01/13 02:59:20;;;;;;;2.90;1.90;;;6.70;45.90;;;;;;5072275;28;20165;-51
2022/01/13 03:01:46;;;;;;;5.60;3.03;;;6.80;45.70;;;;;;5073223;28;20192;-51
2022/01/13 03:04:12;;;;;;;2.50;1.03;;;6.80;45.60;;;;;;5071979;28;20419;-51
2022/01/13 03:06:40;;;;;;;5.40;2.05;;;6.80;45.60;;;;;;5073203;28;20160;-51
2022/01/13 03:09:08;;;;;;;3.92;2.40;;;6.80;45.80;;;;;;5073156;28;20286;-51
2022/01/13 03:11:37;;;;;;;7.57;3.85;;;6.80;45.70;;;;;;5073095;28;20187;-51
2022/01/13 03:14:10;;;;;;;4.50;1.90;;;6.80;45.70;;;;;;5073322;28;20204;-51
2022/01/13 03:16:37;;;;;;;4.35;2.05;;;6.90;45.60;;;;;;5073212;28;20160;-51
2022/01/13 03:19:03;;;;;;;5.03;2.08;;;6.90;45.40;;;;;;5071576;28;20225;-51
2022/01/13 03:21:29;;;;;;;4.55;2.25;;;7.00;45.20;;;;;;5072970;28;20242;-51
2022/01/13 03:23:55;;;;;;;4.30;1.93;;;7.00;45.10;;;;;;5072938;28;20532;-51
2022/01/13 03:26:22;;;;;;;8.77;2.15;;;7.10;45.10;;;;;;5071727;28;20414;-51
2022/01/13 03:28:54;;;;;;;2.83;1.67;;;7.00;45.20;;;;;;5073052;28;20185;-51
2022/01/13 03:31:23;;;;;;;4.53;1.77;;;7.10;46.00;;;;;;5073221;28;20191;-51
2022/01/13 03:33:50;;;;;;;6.20;1.92;;;7.10;45.30;;;;;;5073127;28;20185;-51
2022/01/13 03:36:17;;;;;;;3.97;2.15;;;7.00;45.20;;;;;;5075352;28;20169;-51
2022/01/13 03:38:43;;;;;;;4.55;1.60;;;7.10;45.30;;;;;;5075241;28;20177;-51
2022/01/13 03:41:09;;;;;;;3.85;2.58;;;7.00;45.50;;;;;;5076441;28;20189;-51
2022/01/13 03:43:36;;;;;;;2.20;1.37;;;6.90;45.90;;;;;;5075240;28;20694;-51
2022/01/13 03:46:06;;;;;;;4.40;2.50;;;6.80;45.90;;;;;;5076376;28;20177;-51
2022/01/13 03:48:33;;;;;;;4.28;1.98;;;6.80;45.90;;;;;;5075440;28;20691;-51
2022/01/13 03:50:59;;;;;;;2.53;1.48;;;6.90;46.00;;;;;;5075055;28;20525;-51
2022/01/13 03:53:27;;;;;;;1.73;1.05;;;7.00;45.70;;;;;;5075079;28;20180;-51
2022/01/13 03:56:47;;;;;;;3.72;2.35;;;7.00;45.60;;;;;;5076502;28;20172;-51
2022/01/13 03:59:44;;;;;;;3.33;1.55;;;7.00;45.40;;;;;;5076184;28;20168;-51
2022/01/13 04:02:16;;;;;;;2.78;1.80;;;7.00;45.40;;;;;;5074864;28;20201;-51
2022/01/13 04:04:48;;;;;;;2.97;1.70;;;7.10;45.40;;;;;;5076407;28;20164;-51
2022/01/13 04:07:20;;;;;;;3.70;2.83;;;7.10;45.30;;;;;;5074876;28;20177;-51
2022/01/13 04:09:45;;;;;;;5.00;2.20;;;7.00;45.00;;;;;;5074854;28;20156;-51
2022/01/13 04:12:13;;;;;;;4.50;1.80;;;6.90;45.40;;;;;;5075964;28;20628;-51
2022/01/13 04:14:47;;;;;;;5.05;2.33;;;7.00;45.50;;;;;;5075940;28;20543;-51
2022/01/13 04:17:17;;;;;;;5.18;2.72;;;6.90;45.40;;;;;;5075917;28;20522;-51
2022/01/13 04:19:45;;;;;;;2.15;1.40;;;7.00;45.20;;;;;;5075660;28;20274;-51
2022/01/13 04:22:12;;;;;;;9.15;2.10;;;7.00;44.90;;;;;;5075698;28;20201;-51
2022/01/13 04:24:39;;;;;;;4.82;1.95;;;7.10;45.00;;;;;;5057810;28;20207;-51
2022/01/13 04:27:08;;;;;;;2.35;1.40;;;7.20;44.90;;;;;;5075646;28;20255;-51
2022/01/13 04:29:41;;;;;;;3.20;0.93;;;7.30;44.70;;;;;;5075632;28;20179;-51
2022/01/13 04:32:07;;;;;;;1.50;1.13;;;7.30;44.50;;;;;;5075676;28;20161;-51
2022/01/13 04:34:34;;;;;;;6.05;2.15;;;7.30;44.30;;;;;;5074326;28;20279;-51
2022/01/13 04:37:01;;;;;;;2.42;1.58;;;7.30;44.40;;;;;;5075457;28;20175;-51
2022/01/13 04:39:31;;;;;;;3.50;1.42;;;7.20;44.20;;;;;;5074156;28;20165;-51
2022/01/13 04:41:57;;;;;;;1.67;1.20;;;7.20;44.50;;;;;;5074109;28;20571;-51
2022/01/13 04:44:25;;;;;;;3.40;1.37;;;7.20;44.30;;;;;;5075426;28;20169;-51
2022/01/13 04:46:52;;;;;;;1.65;1.20;;;7.20;44.30;;;;;;5073997;28;20529;-51
2022/01/13 04:49:19;;;;;;;2.40;2.20;;;7.20;44.30;;;;;;5074291;28;20267;-51
2022/01/13 04:51:48;;;;;;;3.78;1.90;;;7.20;44.20;;;;;;5057401;28;20632;-51
2022/01/13 04:54:13;;;;;;;3.10;1.65;;;7.30;44.30;;;;;;5075334;28;20555;-51
2022/01/13 04:56:53;;;;;;;4.77;1.60;;;7.30;44.00;;;;;;5075127;28;20226;-51
2022/01/13 04:59:18;;;;;;;2.55;1.45;;;7.30;43.90;;;;;;5074307;28;20913;-51
2022/01/13 05:01:45;;;;;;;3.43;1.80;;;7.30;43.90;;;;;;5075010;28;20228;-51
2022/01/13 05:04:11;;;;;;;2.72;1.65;;;7.40;43.80;;;;;;5074925;28;20446;-51
2022/01/13 05:06:37;;;;;;;2.70;1.50;;;7.40;43.70;;;;;;5073616;28;20176;-51
2022/01/13 05:09:03;;;;;;;2.20;0.90;;;7.50;44.40;;;;;;5073554;28;20173;-51
2022/01/13 05:11:29;;;;;;;2.88;1.17;;;7.40;43.60;;;;;;5073541;28;20176;-51
2022/01/13 05:13:55;;;;;;;2.00;1.40;;;7.40;43.70;;;;;;5073468;28;20173;-51
2022/01/13 05:16:25;;;;;;;2.10;0.90;;;7.50;43.50;;;;;;5074773;28;20179;-51
2022/01/13 05:19:11;;;;;;;2.50;2.03;;;7.50;43.60;;;;;;5074380;28;20224;-51
2022/01/13 05:21:55;;;;;;;2.72;1.35;;;7.50;43.60;;;;;;5074633;28;20587;-51
2022/01/13 05:24:20;;;;;;;3.55;1.60;;;7.40;43.70;;;;;;5074489;28;20164;-51
2022/01/13 05:26:46;;;;;;;2.00;0.80;;;7.40;43.90;;;;;;5073245;28;20173;-51
2022/01/13 05:29:17;;;;;;;4.50;1.30;;;7.40;43.80;;;;;;5074466;28;20169;-51
2022/01/13 05:31:43;;;;;;;3.97;1.27;;;7.50;43.70;;;;;;5073558;28;20172;-51
2022/01/13 05:34:09;;;;;;;1.37;0.70;;;7.20;44.00;;;;;;5074267;28;20538;-51
2022/01/13 05:36:34;;;;;;;5.30;2.27;;;7.20;44.30;;;;;;5072974;28;20413;-51
2022/01/13 05:39:00;;;;;;;4.23;2.07;;;7.30;44.30;;;;;;5074178;28;20203;-51
2022/01/13 05:41:26;;;;;;;2.20;0.97;;;7.30;44.20;;;;;;5072793;28;20188;-51
2022/01/13 05:43:51;;;;;;;3.20;1.50;;;7.30;44.20;;;;;;5072737;28;20204;-51
2022/01/13 05:46:17;;;;;;;2.40;1.07;;;7.40;44.10;;;;;;5074025;28;20176;-51
2022/01/13 05:48:43;;;;;;;3.03;1.30;;;7.40;43.90;;;;;;5074195;28;20610;-51
2022/01/13 05:51:08;;;;;;;3.30;1.73;;;7.50;43.90;;;;;;5074173;28;20407;-51
2022/01/13 05:53:34;;;;;;;3.77;2.13;;;7.50;43.80;;;;;;5072653;28;20168;-51
2022/01/13 05:56:00;;;;;;;6.83;1.33;;;7.40;44.20;;;;;;5072603;28;20173;-51
2022/01/13 05:58:25;;;;;;;2.50;1.00;;;7.30;44.30;;;;;;5073146;28;20172;-51
2022/01/13 06:00:51;;;;;;;2.37;1.40;;;7.30;44.30;;;;;;5072520;28;20251;-51
2022/01/13 06:03:17;;;;;;;4.23;2.20;;;7.40;44.20;;;;;;5073822;28;20176;-51
2022/01/13 06:05:42;;;;;;;5.43;1.57;;;7.40;44.00;;;;;;5072455;28;20165;-51
2022/01/13 06:08:08;;;;;;;2.20;1.20;;;7.40;44.30;;;;;;5073550;28;20194;-51
2022/01/13 06:10:34;;;;;;;2.37;1.27;;;7.30;44.30;;;;;;5072475;28;20224;-51
2022/01/13 06:12:59;;;;;;;5.33;1.17;;;7.40;44.30;;;;;;5072356;28;20169;-51
2022/01/13 06:15:26;;;;;;;4.50;1.07;;;7.50;44.10;;;;;;5072319;28;20169;-51
2022/01/13 06:17:54;;;;;;;1.98;1.50;;;7.50;44.10;;;;;;5073364;28;20168;-52
2022/01/13 06:20:21;;;;;;;3.75;1.73;;;7.50;44.20;;;;;;5073223;28;20247;-51
2022/01/13 06:22:49;;;;;;;1.60;1.02;;;7.60;44.00;;;;;;5073600;28;20176;-51
2022/01/13 06:25:16;;;;;;;5.55;1.73;;;7.60;43.80;;;;;;5073474;28;20188;-51
2022/01/13 06:27:42;;;;;;;5.03;1.40;;;7.70;44.00;;;;;;5073537;28;20176;-51
2022/01/13 06:30:11;;;;;;;2.50;1.17;;;7.50;44.10;;;;;;5072056;28;20268;-51
2022/01/13 06:32:38;;;;;;;2.90;1.55;;;7.50;44.00;;;;;;5072106;28;20165;-51
2022/01/13 06:35:04;;;;;;;2.95;1.35;;;7.60;44.10;;;;;;5073278;28;20502;-51
2022/01/13 06:37:30;;;;;;;2.42;1.40;;;7.60;43.90;;;;;;5072086;28;20641;-51
2022/01/13 06:39:56;;;;;;;1.50;0.80;;;7.50;44.20;;;;;;5073303;28;20176;-51
2022/01/13 06:42:21;;;;;;;2.83;1.70;;;7.50;44.30;;;;;;5073190;28;20271;-51
2022/01/13 06:44:47;;;;;;;8.40;1.47;;;7.50;44.30;;;;;;5073238;28;20638;-51
2022/01/13 06:47:13;;;;;;;3.13;0.90;;;7.60;44.10;;;;;;5073209;28;20197;-51
2022/01/13 06:49:39;;;;;;;5.00;1.87;;;7.80;44.00;;;;;;5073373;28;20279;-51
2022/01/13 06:52:06;;;;;;;2.38;1.20;;;7.80;43.70;;;;;;5073264;28;20164;-51
2022/01/13 06:54:32;;;;;;;1.75;1.10;;;7.90;43.30;;;;;;5073272;28;20538;-51
2022/01/13 06:56:57;;;;;;;3.40;1.10;;;7.90;43.50;;;;;;5073221;28;20167;-51
2022/01/13 06:59:23;;;;;;;5.33;2.07;;;7.90;43.60;;;;;;5073128;28;20407;-51
2022/01/13 07:01:49;;;;;;;2.70;1.87;;;7.90;43.50;;;;;;5073041;28;20188;-51
2022/01/13 07:04:15;;;;;;;3.63;1.42;;;7.80;43.40;;;;;;5073216;28;20192;-51
2022/01/13 07:06:43;;;;;;;2.45;1.73;;;7.80;43.40;;;;;;5073166;28;20173;-51
2022/01/13 07:09:12;;;;;;;5.70;2.25;;;7.80;43.70;;;;;;5072052;28;20655;-51
2022/01/13 07:11:39;;;;;;;3.70;1.33;;;7.80;43.70;;;;;;5077111;28;20203;-51
2022/01/13 07:14:05;;;;;;;3.70;1.08;;;7.90;43.50;;;;;;5076967;28;20300;-51
2022/01/13 07:16:32;;;;;;;3.60;2.63;;;7.90;43.50;;;;;;5076827;28;20171;-51
2022/01/13 07:18:57;;;;;;;4.13;2.90;;;8.00;43.30;;;;;;5076795;28;20250;-51
2022/01/13 07:21:26;;;;;;;2.40;1.60;;;8.00;43.50;;;;;;5076691;28;20242;-51
2022/01/13 07:23:52;;;;;;;1.85;0.80;;;8.00;43.50;;;;;;5076869;28;20172;-51
2022/01/13 07:26:17;;;;;;;1.60;1.20;;;7.90;43.40;;;;;;5075461;28;20276;-51
2022/01/13 07:28:43;;;;;;;3.30;2.20;;;8.00;43.60;;;;;;5076694;28;20417;-51
2022/01/13 07:31:09;;;;;;;3.23;1.90;;;7.90;43.70;;;;;;5076675;28;20167;-51
2022/01/13 07:33:35;;;;;;;3.13;1.10;;;7.90;43.90;;;;;;5076695;28;20633;-51
2022/01/13 07:36:00;;;;;;;4.13;1.40;;;8.00;43.70;;;;;;5076582;28;20257;-51
2022/01/13 07:38:26;;;;;;;3.07;1.33;;;8.00;43.60;;;;;;5076615;28;20447;-51
2022/01/13 07:40:52;;;;;;;2.73;1.90;;;7.90;43.70;;;;;;5075166;28;20197;-51
2022/01/13 07:43:22;;;;;;;2.33;1.67;;;8.00;43.70;;;;;;5075228;28;20183;-51
2022/01/13 07:45:49;;;;;;;5.57;2.28;;;8.10;43.60;;;;;;5076385;28;20206;-51
2022/01/13 07:48:15;;;;;;;1.60;1.17;;;8.10;43.40;;;;;;5076314;28;20168;-51
2022/01/13 07:50:41;;;;;;;4.00;1.20;;;8.00;43.40;;;;;;5075027;28;20258;-51
2022/01/13 07:53:07;;;;;;;2.80;1.27;;;8.10;43.60;;;;;;5076318;28;20206;-51
2022/01/13 07:55:33;;;;;;;2.15;0.70;;;8.10;43.50;;;;;;5076196;28;20506;-51
2022/01/13 07:57:58;;;;;;;1.67;1.30;;;8.20;43.30;;;;;;5074975;28;20261;-51
2022/01/13 08:00:24;;;;;;;4.00;1.43;;;7.90;43.80;;;;;;5076225;28;20175;-51
2022/01/13 08:02:50;;;;;;;3.47;1.60;;;8.00;44.00;;;;;;5076168;28;20165;-51
2022/01/13 08:05:16;;;;;;;3.57;1.93;;;8.00;43.80;;;;;;5074814;28;20178;-51
2022/01/13 08:07:42;;;;;;;3.00;1.63;;;8.10;43.90;;;;;;5076136;28;20544;-51
2022/01/13 08:10:08;;;;;;;4.00;1.67;;;8.20;43.70;;;;;;5076069;28;20167;-51
2022/01/13 08:12:34;;;;;;;2.00;1.50;;;8.30;43.70;;;;;;5076009;28;20174;-51
2022/01/13 08:15:00;;;;;;;5.20;2.40;;;8.40;43.40;;;;;;5074620;28;20170;-51
2022/01/13 08:20:10;;;;;;;2.40;1.27;;;8.50;43.00;;;;;;5075580;28;20347;-51
2022/01/13 08:22:36;;;;;;;1.70;0.70;;;8.50;42.90;;;;;;5074762;28;20199;-51
2022/01/13 08:25:02;;;;;;;5.00;1.87;;;8.50;42.60;;;;;;5075709;28;20167;-51
2022/01/13 08:27:28;;;;;;;3.22;1.98;;;8.50;42.70;;;;;;5075615;28;20409;-51
2022/01/13 08:29:54;;;;;;;1.70;0.90;;;8.40;42.80;;;;;;5074602;28;20167;-51
2022/01/13 08:32:20;;;;;;;3.00;1.13;;;8.50;43.10;;;;;;5074260;28;20873;-51
2022/01/13 08:34:46;;;;;;;3.97;1.60;;;8.60;42.90;;;;;;5074293;28;20422;-51
2022/01/13 08:37:12;;;;;;;6.50;1.47;;;8.60;42.60;;;;;;5074275;28;20182;-51
2022/01/13 08:39:44;;;;;;;1.80;0.90;;;8.60;42.20;;;;;;5075415;28;20421;-51
2022/01/13 08:42:12;;;;;;;3.20;1.85;;;8.60;42.60;;;;;;5075393;28;20545;-51
2022/01/13 08:44:38;;;;;;;2.53;1.00;;;8.60;42.60;;;;;;5074008;28;20706;-51
2022/01/13 08:47:06;;;;;;;4.13;1.20;;;8.60;42.10;;;;;;5074029;28;20173;-51
2022/01/13 08:49:32;;;;;;;2.05;1.35;;;8.70;41.80;;;;;;5075372;28;20175;-51
2022/01/13 08:51:58;;;;;;;2.10;1.40;;;8.70;42.00;;;;;;5075167;28;20511;-51
2022/01/13 08:54:24;;;;;;;2.80;1.38;;;8.60;42.10;;;;;;5075105;28;20417;-51
2022/01/13 08:56:50;;;;;;;2.70;1.63;;;8.60;41.80;;;;;;5073829;28;20266;-51
2022/01/13 08:59:15;;;;;;;2.47;1.30;;;8.70;42.00;;;;;;5073829;28;20170;-51
2022/01/13 09:01:42;;;;;;;4.70;2.30;;;8.70;42.00;;;;;;5075039;28;20222;-51
2022/01/13 09:04:07;;;;;;;4.00;1.40;;;8.80;42.00;;;;;;5074964;28;20639;-51
2022/01/13 09:06:33;;;;;;;2.40;1.23;;;9.00;41.80;;;;;;5073637;28;20182;-51
2022/01/13 09:08:59;;;;;;;4.35;1.30;;;9.00;41.70;;;;;;5074899;28;20191;-51
2022/01/13 09:11:25;;;;;;;5.93;2.67;;;9.10;41.20;;;;;;5075339;28;20165;-51
2022/01/13 09:13:58;;;;;;;4.13;1.77;;;9.20;41.40;;;;;;5074719;28;20167;-51
2022/01/13 09:16:30;;;;;;;1.63;1.15;;;9.20;41.10;;;;;;5074790;28;20394;-51
2022/01/13 09:21:27;;;;;;;2.43;1.17;;;9.30;41.30;;;;;;5074488;28;20201;-51
2022/01/13 09:23:53;;;;;;;2.97;1.55;;;9.30;41.00;;;;;;5073478;28;20567;-51
2022/01/13 09:26:19;;;;;;;2.67;1.30;;;9.40;41.10;;;;;;5073214;28;20271;-51
2022/01/13 09:28:45;;;;;;;4.33;1.60;;;9.40;40.70;;;;;;5074736;28;20202;-51
2022/01/13 09:31:11;;;;;;;2.10;1.20;;;9.40;41.00;;;;;;5073096;28;20418;-51
2022/01/13 09:33:36;;;;;;;2.03;1.43;;;9.50;40.40;;;;;;5074386;28;20167;-51
2022/01/13 09:36:04;;;;;;;1.80;0.97;;;9.70;40.90;;;;;;5074346;28;20171;-51
2022/01/13 09:38:29;;;;;;;2.03;1.15;;;9.70;40.20;;;;;;5074344;28;20415;-51
2022/01/13 09:40:56;;;;;;;2.80;1.10;;;9.70;40.60;;;;;;5072964;28;20206;-51
2022/01/13 09:43:24;;;;;;;2.58;1.20;;;9.70;39.90;;;;;;5074455;28;20245;-51
2022/01/13 09:45:50;;;;;;;2.60;0.90;;;9.90;40.80;;;;;;5074270;28;20174;-51
2022/01/13 09:48:16;;;;;;;3.15;1.20;;;10.10;40.00;;;;;;5072751;28;20173;-51
2022/01/13 09:50:47;;;;;;;2.63;1.80;;;10.20;39.80;;;;;;5072792;28;20179;-51
2022/01/13 09:53:15;;;;;;;2.75;1.25;;;10.50;39.80;;;;;;5074088;28;20443;-51
2022/01/13 09:55:42;;;;;;;3.40;1.65;;;10.60;39.00;;;;;;5073983;28;20173;-51
2022/01/13 09:58:11;;;;;;;2.10;1.00;;;10.70;38.70;;;;;;5073938;28;20254;-51
2022/01/13 10:00:40;;;;;;;2.50;1.40;;;10.60;38.70;;;;;;5073927;28;20650;-51
2022/01/13 10:03:23;;;;;;;2.15;1.35;;;10.60;38.50;;;;;;5073808;28;20160;-51
2022/01/13 10:05:52;;;;;;;4.47;1.35;;;10.80;38.20;;;;;;5073816;28;20235;-51
2022/01/13 10:08:23;;;;;;;4.18;1.88;;;10.90;39.20;;;;;;5072454;28;20171;-51
2022/01/13 10:10:49;;;;;;;2.35;1.10;;;11.00;38.30;;;;;;5073807;28;20183;-51
2022/01/13 10:13:23;;;;;;;5.82;3.17;;;11.10;38.30;;;;;;5074014;28;20256;-51
2022/01/13 10:18:42;;;;;;;2.95;1.42;;;11.30;37.50;;;;;;5073569;28;20646;-51
2022/01/13 10:21:17;;;;;;;3.53;1.95;;;11.40;37.60;;;;;;5072915;28;20204;-51
2022/01/13 10:24:03;;;;;;;1.27;0.70;;;11.60;37.90;;;;;;5073652;28;20148;-51
2022/01/13 10:26:30;;;;;;;4.65;1.40;;;12.00;37.00;;;;;;5073480;28;20528;-51
2022/01/13 10:28:56;;;;;;;8.23;2.15;;;12.00;37.40;;;;;;5073577;28;20157;-51
2022/01/13 10:31:46;;;;;;;2.23;1.40;;;12.20;36.70;;;;;;5073544;28;20172;-51
2022/01/13 10:34:21;;;;;;;5.65;1.30;;;12.20;36.90;;;;;;5073538;28;20379;-51
2022/01/13 10:37:11;;;;;;;7.50;2.35;;;12.30;36.30;;;;;;5073504;28;20160;-51
2022/01/13 10:39:44;;;;;;;2.42;1.30;;;12.60;35.70;;;;;;5072266;28;20263;-51
2022/01/13 10:42:31;;;;;;;2.60;1.50;;;13.00;36.50;;;;;;5073271;28;20192;-51
2022/01/13 10:44:58;;;;;;;3.22;1.63;;;13.30;36.00;;;;;;5073146;28;20238;-51
2022/01/13 10:47:27;;;;;;;3.15;1.25;;;13.50;35.60;;;;;;5072018;28;20176;-51
2022/01/13 10:49:52;;;;;;;2.67;1.88;;;13.50;34.50;;;;;;5072066;28;20265;-51
2022/01/13 10:52:27;;;;;;;2.70;1.60;;;13.30;34.90;;;;;;5072095;28;20276;-51
2022/01/13 10:54:53;;;;;;;4.22;2.25;;;13.00;35.40;;;;;;5073251;28;20149;-51
2022/01/13 10:57:24;;;;;;;3.20;1.73;;;12.90;36.40;;;;;;5072000;28;20176;-51
2022/01/13 10:59:50;;;;;;;3.25;2.17;;;12.90;35.90;;;;;;5071934;28;20168;-51
2022/01/13 11:02:19;;;;;;;2.33;1.52;;;12.90;35.90;;;;;;5073120;28;20230;-51
2022/01/13 11:04:45;;;;;;;2.00;1.58;;;12.70;35.60;;;;;;5073200;28;20157;-51
2022/01/13 11:07:23;;;;;;;2.30;1.40;;;12.60;36.00;;;;;;5071832;28;20179;-51
2022/01/13 11:09:57;;;;;;;2.78;1.13;;;12.50;36.00;;;;;;5073266;28;20422;-51
2022/01/13 11:12:40;;;;;;;1.90;1.15;;;12.30;36.40;;;;;;5073083;28;20169;-51
2022/01/13 11:15:12;;;;;;;1.92;1.02;;;12.20;36.80;;;;;;5071855;28;20177;-51
2022/01/13 11:17:38;;;;;;;3.13;1.70;;;11.90;37.20;;;;;;5072037;28;20165;-51
2022/01/13 11:20:07;;;;;;;1.50;0.88;;;11.80;37.40;;;;;;5071466;28;20309;-51
2022/01/13 11:22:39;;;;;;;2.95;1.55;;;11.60;37.50;;;;;;5071676;28;20683;-51
2022/01/13 11:25:14;;;;;;;7.18;1.60;;;11.50;37.80;;;;;;5073129;28;20183;-51
2022/01/13 11:27:40;;;;;;;3.92;1.73;;;11.40;38.20;;;;;;5072964;28;20254;-51
2022/01/13 11:30:10;;;;;;;1.60;1.00;;;11.30;38.50;;;;;;5071628;28;20173;-51
2022/01/13 11:32:36;;;;;;;4.18;2.75;;;11.30;38.70;;;;;;5071649;28;20180;-51
2022/01/13 11:35:03;;;;;;;4.22;2.13;;;11.30;38.70;;;;;;5071986;28;20164;-50
2022/01/13 11:37:29;;;;;;;3.47;0.93;;;11.30;39.00;;;;;;5073334;28;20596;-51
2022/01/13 11:39:56;;;;;;;3.25;1.60;;;11.30;39.00;;;;;;5072961;28;20169;-51
2022/01/13 11:42:23;;;;;;;4.13;1.55;;;11.30;38.90;;;;;;5072999;28;20200;-51
2022/01/13 11:45:12;;;;;;;3.33;1.67;;;11.30;38.70;;;;;;5072858;28;20176;-51
2022/01/13 11:47:37;;;;;;;3.15;1.27;;;11.10;39.20;;;;;;5071513;28;20238;-50
2022/01/13 11:50:18;;;;;;;5.97;1.90;;;11.10;39.50;;;;;;5071125;28;20172;-50
2022/01/13 11:52:52;;;;;;;3.25;1.40;;;11.20;39.50;;;;;;5072711;28;20867;-50
2022/01/13 11:55:35;;;;;;;2.50;1.13;;;11.30;38.90;;;;;;5072773;28;20160;-49
2022/01/13 11:58:15;;;;;;;4.32;2.00;;;11.30;39.00;;;;;;5075914;28;20149;-50
2022/01/13 12:00:43;;;;;;;2.80;1.65;;;11.30;39.40;;;;;;5076139;28;20171;-49
2022/01/13 12:03:22;;;;;;;7.25;2.33;;;11.40;39.10;;;;;;5076093;28;20515;-50
2022/01/13 12:05:48;;;;;;;1.55;1.10;;;11.50;39.10;;;;;;5076093;28;20258;-50
2022/01/13 12:08:44;;;;;;;2.17;1.33;;;11.40;39.30;;;;;;5075839;28;20200;-50
2022/01/13 12:11:31;;;;;;;2.63;1.83;;;11.30;38.70;;;;;;5075021;28;20482;-50
2022/01/13 12:13:57;;;;;;;5.00;2.05;;;11.20;39.50;;;;;;5070854;28;20187;-50
2022/01/13 12:16:53;;;;;;;2.97;1.40;;;11.20;39.40;;;;;;5075880;28;20172;-50
2022/01/13 12:19:29;;;;;;;3.97;2.00;;;11.20;39.40;;;;;;5066148;28;20228;-50
2022/01/13 12:22:04;;;;;;;1.67;0.90;;;11.20;39.30;;;;;;5075661;28;20243;-49
2022/01/13 12:24:49;;;;;;;3.17;1.73;;;11.20;39.80;;;;;;5075937;28;20152;-50
2022/01/13 12:27:18;;;;;;;5.57;1.60;;;11.20;39.60;;;;;;5075768;28;20149;-49
2022/01/13 12:30:04;;;;;;;2.30;0.77;;;11.30;39.60;;;;;;5075708;28;20165;-50
2022/01/13 12:32:44;;;;;;;2.47;1.77;;;11.40;39.50;;;;;;5075576;28;20168;-50
2022/01/13 12:35:13;;;;;;;3.50;1.98;;;11.30;39.80;;;;;;5075606;28;20153;-50
2022/01/13 12:37:39;;;;;;;4.13;1.05;;;11.20;39.90;;;;;;5075674;28;20165;-49
2022/01/13 12:40:19;;;;;;;2.10;1.50;;;11.20;40.20;;;;;;5075510;28;20176;-50
2022/01/13 12:42:52;;;;;;;1.85;1.13;;;11.30;39.90;;;;;;5075578;28;20199;-50
2022/01/13 12:45:32;;;;;;;3.85;1.30;;;11.30;39.70;;;;;;5075636;28;20290;-50
2022/01/13 12:48:10;;;;;;;4.32;1.48;;;11.30;40.10;;;;;;5074096;28;20203;-50
2022/01/13 12:50:42;;;;;;;2.13;1.25;;;11.40;40.00;;;;;;5075349;28;20187;-50
2022/01/13 12:53:18;;;;;;;3.92;1.77;;;11.40;39.90;;;;;;5074002;28;20651;-50
2022/01/13 12:56:04;;;;;;;2.13;1.25;;;11.50;40.00;;;;;;5075067;28;20697;-50
2022/01/13 12:58:39;;;;;;;2.28;1.20;;;11.40;40.10;;;;;;5075322;28;20252;-50
2022/01/13 13:01:09;;;;;;;2.25;1.38;;;11.30;40.30;;;;;;5073681;28;20188;-50
2022/01/13 13:03:35;;;;;;;3.03;1.40;;;11.40;39.90;;;;;;5075145;28;20165;-50
2022/01/13 13:06:11;;;;;;;2.03;1.10;;;11.20;40.30;;;;;;5074934;28;20176;-50
2022/01/13 13:08:46;;;;;;;2.75;1.58;;;11.20;40.70;;;;;;5074553;28;20157;-50
2022/01/13 13:11:13;;;;;;;3.80;1.38;;;11.10;40.90;;;;;;5073555;28;20263;-50
2022/01/13 13:13:50;;;;;;;2.17;1.35;;;11.20;40.70;;;;;;5074855;28;20204;-50
2022/01/13 13:16:16;;;;;;;2.72;1.10;;;11.20;40.60;;;;;;5074735;28;20157;-50
2022/01/13 13:18:42;;;;;;;2.03;0.93;;;11.30;40.60;;;;;;5073168;28;20217;-50
2022/01/13 13:21:09;;;;;;;2.00;1.13;;;11.10;41.00;;;;;;5073324;28;20219;-50
2022/01/13 13:23:43;;;;;;;1.98;0.90;;;11.10;41.30;;;;;;5073313;28;20208;-50